sensor_id;sensor_type;location;lat;lon;timestamp;pressure;altitude;pressure_sealevel;temperature;humidity
44988;BME280;35735;52.226;21.254;2023-05-10T00:01:29;100980.22;;;6.41;90.20
44988;BME280;35735;52.226;21.254;2023-05-10T00:06:30;100975.66;;;6.37;90.06
44988;BME280;35735;52.226;21.254;2023-05-10T00:11:31;100970.59;;;6.49;89.55
44988;BME280;35735;52.226;21.254;2023-05-10T00:16:31;100961.03;;;6.59;89.08
44988;BME280;35735;52.226;21.254;2023-05-10T00:21:32;100961.09;;;6.62;88.31
44988;BME280;35735;52.226;21.254;2023-05-10T00:26:32;100956.88;;;6.72;87.60
44988;BME280;35735;52.226;21.254;2023-05-10T00:31:33;100953.31;;;6.73;86.68
44988;BME280;35735;52.226;21.254;2023-05-10T00:36:33;100951.66;;;6.78;86.43
44988;BME280;35735;52.226;21.254;2023-05-10T00:41:34;100941.94;;;6.83;85.68
44988;BME280;35735;52.226;21.254;2023-05-10T00:46:35;100939.38;;;6.90;85.08
44988;BME280;35735;52.226;21.254;2023-05-10T00:51:35;100942.13;;;6.93;84.66
44988;BME280;35735;52.226;21.254;2023-05-10T00:56:36;100934.19;;;6.97;84.26
44988;BME280;35735;52.226;21.254;2023-05-10T01:01:37;100936.06;;;7.01;83.77
44988;BME280;35735;52.226;21.254;2023-05-10T01:06:38;100933.56;;;7.09;83.64
44988;BME280;35735;52.226;21.254;2023-05-10T01:11:39;100926.47;;;7.13;83.21
44988;BME280;35735;52.226;21.254;2023-05-10T01:16:41;100931.06;;;7.17;82.84
44988;BME280;35735;52.226;21.254;2023-05-10T01:27:15;100918.28;;;7.05;83.05
44988;BME280;35735;52.226;21.254;2023-05-10T01:32:38;100922.78;;;7.08;82.69
44988;BME280;35735;52.226;21.254;2023-05-10T01:38:20;100921.00;;;7.08;82.47
44988;BME280;35735;52.226;21.254;2023-05-10T01:43:32;100915.50;;;7.00;82.01
44988;BME280;35735;52.226;21.254;2023-05-10T01:48:47;100920.81;;;6.99;81.93
44988;BME280;35735;52.226;21.254;2023-05-10T01:53:59;100910.88;;;6.95;81.97
44988;BME280;35735;52.226;21.254;2023-05-10T01:59:06;100902.81;;;6.95;82.24
44988;BME280;35735;52.226;21.254;2023-05-10T02:04:09;100901.91;;;6.94;82.23
44988;BME280;35735;52.226;21.254;2023-05-10T02:09:11;100895.66;;;6.94;81.84
44988;BME280;35735;52.226;21.254;2023-05-10T02:14:13;100898.34;;;6.94;81.73
44988;BME280;35735;52.226;21.254;2023-05-10T02:19:16;100891.16;;;6.93;81.73
44988;BME280;35735;52.226;21.254;2023-05-10T02:24:19;100894.66;;;6.89;81.31
44988;BME280;35735;52.226;21.254;2023-05-10T02:29:22;100901.69;;;6.83;81.55
44988;BME280;35735;52.226;21.254;2023-05-10T02:34:26;100889.91;;;6.77;81.47
44988;BME280;35735;52.226;21.254;2023-05-10T02:39:26;100894.34;;;6.76;81.56
44988;BME280;35735;52.226;21.254;2023-05-10T02:44:29;100889.91;;;6.77;81.46
44988;BME280;35735;52.226;21.254;2023-05-10T02:49:30;100892.47;;;6.72;81.29
44988;BME280;35735;52.226;21.254;2023-05-10T02:54:33;100895.09;;;6.69;81.26
44988;BME280;35735;52.226;21.254;2023-05-10T02:59:39;100903.94;;;6.66;81.36
44988;BME280;35735;52.226;21.254;2023-05-10T03:04:40;100909.28;;;6.63;81.46
44988;BME280;35735;52.226;21.254;2023-05-10T03:09:41;100902.09;;;6.62;81.52
44988;BME280;35735;52.226;21.254;2023-05-10T03:19:58;100905.66;;;6.63;81.81
44988;BME280;35735;52.226;21.254;2023-05-10T03:25:06;100898.50;;;6.62;82.02
44988;BME280;35735;52.226;21.254;2023-05-10T03:30:10;100903.72;;;6.56;82.18
44988;BME280;35735;52.226;21.254;2023-05-10T03:35:12;100908.22;;;6.57;82.38
44988;BME280;35735;52.226;21.254;2023-05-10T03:40:13;100894.22;;;6.70;82.64
44988;BME280;35735;52.226;21.254;2023-05-10T03:45:14;100895.59;;;6.91;82.77
44988;BME280;35735;52.226;21.254;2023-05-10T03:50:14;100893.50;;;7.18;82.30
44988;BME280;35735;52.226;21.254;2023-05-10T03:55:15;100890.53;;;7.47;81.83
44988;BME280;35735;52.226;21.254;2023-05-10T04:00:16;100891.88;;;7.71;81.69
44988;BME280;35735;52.226;21.254;2023-05-10T04:05:17;100895.09;;;8.02;80.92
44988;BME280;35735;52.226;21.254;2023-05-10T04:10:18;100892.06;;;8.33;80.75
44988;BME280;35735;52.226;21.254;2023-05-10T04:15:18;100897.06;;;8.62;80.23
44988;BME280;35735;52.226;21.254;2023-05-10T04:20:19;100886.78;;;8.95;78.83
44988;BME280;35735;52.226;21.254;2023-05-10T04:25:19;100890.87;;;9.32;78.94
44988;BME280;35735;52.226;21.254;2023-05-10T04:30:20;100896.50;;;9.55;77.66
44988;BME280;35735;52.226;21.254;2023-05-10T04:35:20;100896.72;;;9.74;76.62
44988;BME280;35735;52.226;21.254;2023-05-10T04:40:21;100896.12;;;10.01;76.31
44988;BME280;35735;52.226;21.254;2023-05-10T04:45:21;100904.63;;;10.43;75.90
44988;BME280;35735;52.226;21.254;2023-05-10T04:50:22;100900.38;;;10.77;75.19
44988;BME280;35735;52.226;21.254;2023-05-10T04:55:23;100902.50;;;11.34;75.19
44988;BME280;35735;52.226;21.254;2023-05-10T05:00:23;100905.34;;;11.72;73.46
44988;BME280;35735;52.226;21.254;2023-05-10T05:05:24;100895.44;;;11.79;71.61
44988;BME280;35735;52.226;21.254;2023-05-10T05:10:24;100897.34;;;12.08;71.58
44988;BME280;35735;52.226;21.254;2023-05-10T05:15:25;100895.56;;;12.50;70.43
44988;BME280;35735;52.226;21.254;2023-05-10T05:20:25;100896.41;;;12.90;69.03
44988;BME280;35735;52.226;21.254;2023-05-10T05:25:26;100893.66;;;13.01;68.50
44988;BME280;35735;52.226;21.254;2023-05-10T05:30:26;100900.81;;;13.33;67.42
44988;BME280;35735;52.226;21.254;2023-05-10T05:35:27;100890.84;;;13.47;66.85
44988;BME280;35735;52.226;21.254;2023-05-10T05:40:27;100896.06;;;13.87;67.27
44988;BME280;35735;52.226;21.254;2023-05-10T05:45:28;100900.34;;;14.22;66.03
44988;BME280;35735;52.226;21.254;2023-05-10T05:50:28;100905.50;;;14.56;64.93
44988;BME280;35735;52.226;21.254;2023-05-10T05:55:29;100897.91;;;14.98;64.53
44988;BME280;35735;52.226;21.254;2023-05-10T06:00:30;100900.31;;;15.23;62.66
44988;BME280;35735;52.226;21.254;2023-05-10T06:05:30;100896.19;;;15.64;62.57
44988;BME280;35735;52.226;21.254;2023-05-10T06:10:31;100898.44;;;16.01;60.42
44988;BME280;35735;52.226;21.254;2023-05-10T06:15:31;100899.84;;;16.27;59.74
44988;BME280;35735;52.226;21.254;2023-05-10T06:20:32;100901.31;;;16.49;58.52
44988;BME280;35735;52.226;21.254;2023-05-10T06:25:32;100902.72;;;16.72;56.83
44988;BME280;35735;52.226;21.254;2023-05-10T06:30:33;100900.41;;;16.51;56.16
44988;BME280;35735;52.226;21.254;2023-05-10T06:35:33;100897.38;;;16.67;56.71
44988;BME280;35735;52.226;21.254;2023-05-10T06:40:34;100894.94;;;17.02;57.08
44988;BME280;35735;52.226;21.254;2023-05-10T06:45:35;100892.72;;;17.24;54.74
44988;BME280;35735;52.226;21.254;2023-05-10T06:50:35;100892.75;;;17.22;55.31
44988;BME280;35735;52.226;21.254;2023-05-10T06:55:36;100891.91;;;17.63;54.84
44988;BME280;35735;52.226;21.254;2023-05-10T07:00:37;100891.75;;;17.69;53.20
44988;BME280;35735;52.226;21.254;2023-05-10T07:05:37;100895.03;;;17.88;53.44
44988;BME280;35735;52.226;21.254;2023-05-10T07:10:38;100897.28;;;18.08;52.36
44988;BME280;35735;52.226;21.254;2023-05-10T07:15:38;100888.22;;;18.06;50.89
44988;BME280;35735;52.226;21.254;2023-05-10T07:20:39;100886.97;;;18.19;49.73
44988;BME280;35735;52.226;21.254;2023-05-10T07:25:39;100893.69;;;18.06;48.72
44988;BME280;35735;52.226;21.254;2023-05-10T07:30:40;100883.63;;;18.08;46.89
44988;BME280;35735;52.226;21.254;2023-05-10T07:35:41;100889.09;;;18.08;48.21
44988;BME280;35735;52.226;21.254;2023-05-10T07:40:42;100890.38;;;18.30;46.08
44988;BME280;35735;52.226;21.254;2023-05-10T07:45:43;100886.31;;;18.47;47.79
44988;BME280;35735;52.226;21.254;2023-05-10T07:50:43;100887.97;;;18.90;45.60
44988;BME280;35735;52.226;21.254;2023-05-10T07:55:44;100882.66;;;19.17;44.37
44988;BME280;35735;52.226;21.254;2023-05-10T08:00:44;100887.06;;;19.22;43.47
44988;BME280;35735;52.226;21.254;2023-05-10T08:05:45;100881.66;;;18.88;41.89
44988;BME280;35735;52.226;21.254;2023-05-10T08:10:45;100879.69;;;18.93;39.27
44988;BME280;35735;52.226;21.254;2023-05-10T08:15:46;100871.59;;;18.88;38.52
44988;BME280;35735;52.226;21.254;2023-05-10T08:20:46;100879.84;;;18.87;39.20
44988;BME280;35735;52.226;21.254;2023-05-10T08:25:47;100875.59;;;19.10;37.99
44988;BME280;35735;52.226;21.254;2023-05-10T08:30:49;100873.22;;;18.96;38.18
44988;BME280;35735;52.226;21.254;2023-05-10T08:35:50;100875.28;;;18.51;38.65
44988;BME280;35735;52.226;21.254;2023-05-10T08:40:53;100875.06;;;18.59;37.14
44988;BME280;35735;52.226;21.254;2023-05-10T08:45:55;100873.44;;;18.52;37.87
44988;BME280;35735;52.226;21.254;2023-05-10T08:50:58;100880.91;;;18.80;38.75
44988;BME280;35735;52.226;21.254;2023-05-10T08:56:01;100882.41;;;18.57;37.32
44988;BME280;35735;52.226;21.254;2023-05-10T09:01:02;100884.44;;;18.49;38.33
44988;BME280;35735;52.226;21.254;2023-05-10T09:06:03;100877.69;;;18.64;38.63
44988;BME280;35735;52.226;21.254;2023-05-10T09:11:05;100875.22;;;18.89;38.68
44988;BME280;35735;52.226;21.254;2023-05-10T09:16:05;100861.75;;;18.81;38.04
44988;BME280;35735;52.226;21.254;2023-05-10T09:21:06;100871.41;;;18.96;37.86
44988;BME280;35735;52.226;21.254;2023-05-10T09:26:07;100854.66;;;18.73;37.46
44988;BME280;35735;52.226;21.254;2023-05-10T09:31:08;100856.03;;;18.56;38.00
44988;BME280;35735;52.226;21.254;2023-05-10T09:36:08;100845.53;;;18.74;37.86
44988;BME280;35735;52.226;21.254;2023-05-10T09:41:16;100851.41;;;18.58;38.25
44988;BME280;35735;52.226;21.254;2023-05-10T09:46:17;100849.09;;;18.76;36.04
44988;BME280;35735;52.226;21.254;2023-05-10T09:51:24;100870.31;;;18.31;36.02
44988;BME280;35735;52.226;21.254;2023-05-10T09:56:35;100871.22;;;17.94;36.83
44988;BME280;35735;52.226;21.254;2023-05-10T10:01:36;100856.25;;;18.11;38.11
44988;BME280;35735;52.226;21.254;2023-05-10T10:06:38;100851.72;;;18.10;36.69
44988;BME280;35735;52.226;21.254;2023-05-10T10:11:39;100847.09;;;18.12;37.74
44988;BME280;35735;52.226;21.254;2023-05-10T10:16:40;100829.16;;;18.02;38.24
44988;BME280;35735;52.226;21.254;2023-05-10T10:21:40;100836.25;;;18.09;39.16
44988;BME280;35735;52.226;21.254;2023-05-10T10:26:42;100822.59;;;18.45;38.68
44988;BME280;35735;52.226;21.254;2023-05-10T10:31:52;100826.91;;;18.54;39.43
44988;BME280;35735;52.226;21.254;2023-05-10T10:36:58;100821.78;;;18.41;37.74
44988;BME280;35735;52.226;21.254;2023-05-10T10:42:04;100819.69;;;18.17;36.90
44988;BME280;35735;52.226;21.254;2023-05-10T10:57:14;100810.88;;;18.04;38.80
44988;BME280;35735;52.226;21.254;2023-05-10T11:02:33;100805.12;;;18.16;37.99
44988;BME280;35735;52.226;21.254;2023-05-10T11:07:54;100791.66;;;18.44;38.82
44988;BME280;35735;52.226;21.254;2023-05-10T11:13:00;100790.53;;;18.51;38.20
44988;BME280;35735;52.226;21.254;2023-05-10T11:18:40;100781.44;;;18.51;36.44
44988;BME280;35735;52.226;21.254;2023-05-10T11:28:47;100779.37;;;18.26;38.14
44988;BME280;35735;52.226;21.254;2023-05-10T11:33:51;100769.91;;;18.40;36.85
44988;BME280;35735;52.226;21.254;2023-05-10T11:38:56;100771.22;;;18.25;38.73
44988;BME280;35735;52.226;21.254;2023-05-10T11:43:58;100764.66;;;18.30;37.78
44988;BME280;35735;52.226;21.254;2023-05-10T11:49:00;100777.00;;;18.47;37.59
44988;BME280;35735;52.226;21.254;2023-05-10T11:54:08;100766.69;;;18.22;36.67
44988;BME280;35735;52.226;21.254;2023-05-10T11:59:09;100761.25;;;18.22;37.58
44988;BME280;35735;52.226;21.254;2023-05-10T12:04:10;100765.63;;;18.29;38.09
44988;BME280;35735;52.226;21.254;2023-05-10T12:09:11;100765.31;;;18.40;38.48
44988;BME280;35735;52.226;21.254;2023-05-10T12:14:11;100752.41;;;18.47;38.33
44988;BME280;35735;52.226;21.254;2023-05-10T12:19:12;100751.31;;;18.20;38.80
44988;BME280;35735;52.226;21.254;2023-05-10T12:24:13;100747.72;;;18.18;39.41
44988;BME280;35735;52.226;21.254;2023-05-10T12:29:17;100754.88;;;18.22;39.22
44988;BME280;35735;52.226;21.254;2023-05-10T12:34:46;100754.25;;;18.10;39.62
44988;BME280;35735;52.226;21.254;2023-05-10T12:39:46;100757.34;;;17.96;40.72
44988;BME280;35735;52.226;21.254;2023-05-10T12:44:47;100758.56;;;17.83;40.90
44988;BME280;35735;52.226;21.254;2023-05-10T12:49:47;100745.22;;;17.71;40.98
44988;BME280;35735;52.226;21.254;2023-05-10T12:54:48;100739.47;;;17.83;42.17
44988;BME280;35735;52.226;21.254;2023-05-10T12:59:49;100741.28;;;17.83;41.88
44988;BME280;35735;52.226;21.254;2023-05-10T13:04:49;100744.34;;;17.69;42.15
44988;BME280;35735;52.226;21.254;2023-05-10T13:09:50;100724.47;;;17.64;42.60
44988;BME280;35735;52.226;21.254;2023-05-10T13:14:51;100735.44;;;17.60;43.40
44988;BME280;35735;52.226;21.254;2023-05-10T13:19:51;100727.91;;;17.72;41.79
44988;BME280;35735;52.226;21.254;2023-05-10T13:24:52;100726.16;;;17.69;41.83
44988;BME280;35735;52.226;21.254;2023-05-10T13:29:53;100714.25;;;17.72;41.09
44988;BME280;35735;52.226;21.254;2023-05-10T13:34:54;100713.47;;;17.67;41.79
44988;BME280;35735;52.226;21.254;2023-05-10T13:39:55;100716.97;;;17.72;40.77
44988;BME280;35735;52.226;21.254;2023-05-10T13:44:55;100699.62;;;17.74;40.98
44988;BME280;35735;52.226;21.254;2023-05-10T13:49:56;100708.84;;;17.69;39.93
44988;BME280;35735;52.226;21.254;2023-05-10T13:54:57;100714.72;;;17.52;39.87
44988;BME280;35735;52.226;21.254;2023-05-10T13:59:57;100703.00;;;17.48;39.79
44988;BME280;35735;52.226;21.254;2023-05-10T14:04:58;100705.75;;;17.47;39.05
44988;BME280;35735;52.226;21.254;2023-05-10T14:09:59;100704.81;;;17.49;40.03
44988;BME280;35735;52.226;21.254;2023-05-10T14:15:00;100702.22;;;17.43;39.26
44988;BME280;35735;52.226;21.254;2023-05-10T14:20:01;100698.66;;;17.39;40.02
44988;BME280;35735;52.226;21.254;2023-05-10T14:25:02;100678.66;;;17.39;40.90
44988;BME280;35735;52.226;21.254;2023-05-10T14:30:03;100698.81;;;17.33;39.20
44988;BME280;35735;52.226;21.254;2023-05-10T14:35:04;100705.44;;;17.21;39.71
44988;BME280;35735;52.226;21.254;2023-05-10T14:40:06;100692.81;;;17.17;39.19
44988;BME280;35735;52.226;21.254;2023-05-10T14:45:07;100701.16;;;17.10;39.16
44988;BME280;35735;52.226;21.254;2023-05-10T14:50:08;100700.38;;;17.04;39.68
44988;BME280;35735;52.226;21.254;2023-05-10T14:55:09;100700.41;;;17.03;39.09
44988;BME280;35735;52.226;21.254;2023-05-10T15:00:10;100693.22;;;16.99;40.01
44988;BME280;35735;52.226;21.254;2023-05-10T15:05:11;100695.88;;;17.02;40.32
44988;BME280;35735;52.226;21.254;2023-05-10T15:10:12;100691.31;;;17.04;40.86
44988;BME280;35735;52.226;21.254;2023-05-10T15:15:12;100688.47;;;17.07;41.49
44988;BME280;35735;52.226;21.254;2023-05-10T15:20:13;100668.44;;;17.10;39.83
44988;BME280;35735;52.226;21.254;2023-05-10T15:25:14;100677.72;;;17.02;40.10
44988;BME280;35735;52.226;21.254;2023-05-10T15:30:14;100692.31;;;16.98;40.44
44988;BME280;35735;52.226;21.254;2023-05-10T15:35:15;100692.41;;;16.94;39.69
44988;BME280;35735;52.226;21.254;2023-05-10T15:40:16;100677.13;;;16.87;39.85
44988;BME280;35735;52.226;21.254;2023-05-10T15:45:16;100671.69;;;16.87;39.91
44988;BME280;35735;52.226;21.254;2023-05-10T15:50:17;100682.53;;;16.90;39.59
44988;BME280;35735;52.226;21.254;2023-05-10T15:55:18;100679.03;;;16.81;38.98
44988;BME280;35735;52.226;21.254;2023-05-10T16:00:19;100657.34;;;16.75;38.99
44988;BME280;35735;52.226;21.254;2023-05-10T16:05:20;100678.56;;;16.61;38.79
44988;BME280;35735;52.226;21.254;2023-05-10T16:10:20;100674.16;;;16.54;38.55
44988;BME280;35735;52.226;21.254;2023-05-10T16:15:21;100671.53;;;16.51;38.73
44988;BME280;35735;52.226;21.254;2023-05-10T16:20:22;100676.12;;;16.45;39.14
44988;BME280;35735;52.226;21.254;2023-05-10T16:25:22;100674.31;;;16.46;38.68
44988;BME280;35735;52.226;21.254;2023-05-10T16:30:23;100674.53;;;16.35;37.88
44988;BME280;35735;52.226;21.254;2023-05-10T16:35:24;100671.94;;;16.29;39.16
44988;BME280;35735;52.226;21.254;2023-05-10T16:40:24;100681.03;;;16.28;38.99
44988;BME280;35735;52.226;21.254;2023-05-10T16:45:25;100677.59;;;16.18;38.73
44988;BME280;35735;52.226;21.254;2023-05-10T16:50:25;100681.44;;;16.06;38.58
44988;BME280;35735;52.226;21.254;2023-05-10T16:55:26;100682.50;;;15.99;38.97
44988;BME280;35735;52.226;21.254;2023-05-10T17:00:27;100681.63;;;15.97;39.08
44988;BME280;35735;52.226;21.254;2023-05-10T17:05:28;100686.22;;;15.92;38.80
44988;BME280;35735;52.226;21.254;2023-05-10T17:10:28;100689.94;;;15.88;38.97
44988;BME280;35735;52.226;21.254;2023-05-10T17:15:29;100690.00;;;15.83;39.87
44988;BME280;35735;52.226;21.254;2023-05-10T17:20:29;100692.84;;;15.79;40.09
44988;BME280;35735;52.226;21.254;2023-05-10T17:25:30;100691.94;;;15.77;39.96
44988;BME280;35735;52.226;21.254;2023-05-10T17:30:31;100697.47;;;15.70;39.69
44988;BME280;35735;52.226;21.254;2023-05-10T17:35:31;100704.87;;;15.62;42.04
44988;BME280;35735;52.226;21.254;2023-05-10T17:40:32;100704.91;;;15.59;40.85
44988;BME280;35735;52.226;21.254;2023-05-10T17:45:32;100712.28;;;15.51;40.96
44988;BME280;35735;52.226;21.254;2023-05-10T17:50:33;100717.00;;;15.40;41.53
44988;BME280;35735;52.226;21.254;2023-05-10T17:55:34;100715.16;;;15.40;42.20
44988;BME280;35735;52.226;21.254;2023-05-10T18:00:35;100724.38;;;15.31;41.92
44988;BME280;35735;52.226;21.254;2023-05-10T18:05:36;100725.47;;;15.18;42.21
44988;BME280;35735;52.226;21.254;2023-05-10T18:10:38;100722.00;;;15.07;43.02
44988;BME280;35735;52.226;21.254;2023-05-10T18:15:38;100726.69;;;14.95;43.46
44988;BME280;35735;52.226;21.254;2023-05-10T18:20:39;100720.56;;;14.78;43.95
44988;BME280;35735;52.226;21.254;2023-05-10T18:25:39;100731.63;;;14.62;44.59
44988;BME280;35735;52.226;21.254;2023-05-10T18:30:40;100735.34;;;14.52;45.02
44988;BME280;35735;52.226;21.254;2023-05-10T18:35:41;100739.09;;;14.40;45.76
44988;BME280;35735;52.226;21.254;2023-05-10T18:40:41;100746.41;;;14.31;46.18
44988;BME280;35735;52.226;21.254;2023-05-10T18:45:42;100755.59;;;14.20;46.79
44988;BME280;35735;52.226;21.254;2023-05-10T18:50:42;100759.31;;;14.10;47.43
44988;BME280;35735;52.226;21.254;2023-05-10T18:55:43;100766.63;;;13.99;48.05
44988;BME280;35735;52.226;21.254;2023-05-10T19:00:44;100767.62;;;13.90;49.52
44988;BME280;35735;52.226;21.254;2023-05-10T19:05:44;100770.41;;;13.76;51.46
44988;BME280;35735;52.226;21.254;2023-05-10T19:10:45;100770.53;;;13.61;51.17
44988;BME280;35735;52.226;21.254;2023-05-10T19:15:45;100774.25;;;13.44;52.69
44988;BME280;35735;52.226;21.254;2023-05-10T19:20:46;100771.59;;;13.38;53.31
44988;BME280;35735;52.226;21.254;2023-05-10T19:25:46;100775.25;;;13.25;53.06
44988;BME280;35735;52.226;21.254;2023-05-10T19:30:47;100775.34;;;13.05;54.24
44988;BME280;35735;52.226;21.254;2023-05-10T19:35:51;100778.09;;;12.91;54.65
44988;BME280;35735;52.226;21.254;2023-05-10T19:40:54;100776.34;;;12.77;54.51
44988;BME280;35735;52.226;21.254;2023-05-10T19:45:58;100781.81;;;12.62;55.29
44988;BME280;35735;52.226;21.254;2023-05-10T19:51:00;100778.22;;;12.46;55.57
44988;BME280;35735;52.226;21.254;2023-05-10T19:56:03;100779.16;;;12.36;57.21
44988;BME280;35735;52.226;21.254;2023-05-10T20:01:04;100780.06;;;12.24;56.83
44988;BME280;35735;52.226;21.254;2023-05-10T20:06:05;100781.00;;;12.18;58.81
44988;BME280;35735;52.226;21.254;2023-05-10T20:11:05;100784.59;;;12.05;58.77
44988;BME280;35735;52.226;21.254;2023-05-10T20:16:06;100786.37;;;11.89;60.24
44988;BME280;35735;52.226;21.254;2023-05-10T20:21:07;100781.88;;;11.82;60.87
44988;BME280;35735;52.226;21.254;2023-05-10T20:26:07;100786.34;;;11.71;61.54
44988;BME280;35735;52.226;21.254;2023-05-10T20:31:08;100789.06;;;11.64;61.16
44988;BME280;35735;52.226;21.254;2023-05-10T20:36:08;100786.31;;;11.46;63.31
44988;BME280;35735;52.226;21.254;2023-05-10T20:41:09;100790.81;;;11.38;63.44
44988;BME280;35735;52.226;21.254;2023-05-10T20:46:10;100790.81;;;11.36;64.04
44988;BME280;35735;52.226;21.254;2023-05-10T20:51:10;100792.56;;;11.23;63.08
44988;BME280;35735;52.226;21.254;2023-05-10T20:56:12;100793.44;;;11.13;63.76
44988;BME280;35735;52.226;21.254;2023-05-10T21:01:13;100799.72;;;11.03;63.37
44988;BME280;35735;52.226;21.254;2023-05-10T21:06:13;100807.75;;;10.95;63.05
44988;BME280;35735;52.226;21.254;2023-05-10T21:11:14;100814.00;;;10.80;63.19
44988;BME280;35735;52.226;21.254;2023-05-10T21:16:14;100813.06;;;10.77;63.29
44988;BME280;35735;52.226;21.254;2023-05-10T21:21:15;100817.59;;;10.76;63.41
44988;BME280;35735;52.226;21.254;2023-05-10T21:26:15;100815.69;;;10.66;63.25
44988;BME280;35735;52.226;21.254;2023-05-10T21:31:16;100816.59;;;10.62;63.39
44988;BME280;35735;52.226;21.254;2023-05-10T21:36:16;100824.66;;;10.59;63.63
44988;BME280;35735;52.226;21.254;2023-05-10T21:41:17;100822.88;;;10.57;63.83
44988;BME280;35735;52.226;21.254;2023-05-10T21:46:17;100819.25;;;10.59;63.94
44988;BME280;35735;52.226;21.254;2023-05-10T21:51:18;100823.75;;;10.55;63.97
44988;BME280;35735;52.226;21.254;2023-05-10T21:56:19;100831.81;;;10.50;64.07
44988;BME280;35735;52.226;21.254;2023-05-10T22:01:19;100826.38;;;10.44;64.09
44988;BME280;35735;52.226;21.254;2023-05-10T22:06:20;100831.75;;;10.41;64.21
44988;BME280;35735;52.226;21.254;2023-05-10T22:11:20;100832.63;;;10.38;64.28
44988;BME280;35735;52.226;21.254;2023-05-10T22:16:21;100838.91;;;10.36;64.44
44988;BME280;35735;52.226;21.254;2023-05-10T22:21:21;100836.22;;;10.37;64.64
44988;BME280;35735;52.226;21.254;2023-05-10T22:26:22;100841.59;;;10.33;64.52
44988;BME280;35735;52.226;21.254;2023-05-10T22:31:22;100847.84;;;10.32;64.60
44988;BME280;35735;52.226;21.254;2023-05-10T22:36:23;100854.97;;;10.27;64.92
44988;BME280;35735;52.226;21.254;2023-05-10T22:41:24;100860.34;;;10.24;65.24
44988;BME280;35735;52.226;21.254;2023-05-10T22:46:24;100866.63;;;10.21;65.21
44988;BME280;35735;52.226;21.254;2023-05-10T22:51:25;100874.72;;;10.19;65.26
44988;BME280;35735;52.226;21.254;2023-05-10T22:56:26;100871.09;;;10.17;65.29
44988;BME280;35735;52.226;21.254;2023-05-10T23:01:27;100872.88;;;10.12;65.35
44988;BME280;35735;52.226;21.254;2023-05-10T23:06:27;100862.03;;;10.09;65.35
44988;BME280;35735;52.226;21.254;2023-05-10T23:11:28;100870.09;;;10.05;65.54
44988;BME280;35735;52.226;21.254;2023-05-10T23:16:29;100865.53;;;9.96;65.79
44988;BME280;35735;52.226;21.254;2023-05-10T23:21:29;100862.69;;;9.85;65.87
44988;BME280;35735;52.226;21.254;2023-05-10T23:26:30;100861.78;;;9.81;66.12
44988;BME280;35735;52.226;21.254;2023-05-10T23:31:30;100872.47;;;9.75;66.29
44988;BME280;35735;52.226;21.254;2023-05-10T23:36:31;100866.19;;;9.73;66.67
44988;BME280;35735;52.226;21.254;2023-05-10T23:41:31;100870.59;;;9.67;66.96
44988;BME280;35735;52.226;21.254;2023-05-10T23:46:32;100874.13;;;9.61;66.95
44988;BME280;35735;52.226;21.254;2023-05-10T23:51:33;100866.88;;;9.57;67.07
44988;BME280;35735;52.226;21.254;2023-05-10T23:56:33;100872.16;;;9.44;67.15
